Time;durP1;ratioP1;P1;durP2;ratioP2;P2;SDS_P1;SDS_P2;PMS_P1;PMS_P2;Temp;Humidity;BMP_temperature;BMP_pressure;BME280_temperature;BME280_humidity;BME280_pressure;Samples;Min_cycle;Max_cycle;Signal;HPM_P1;HPM_P2
2022/06/29 00:00:46;;;;;;;24.17;16.95;;;17.20;69.70;;;;;;5048562;28;20507;-69
2022/06/29 00:03:12;;;;;;;30.83;17.33;;;17.20;69.60;;;;;;5050937;28;20098;-70
2022/06/29 00:05:39;;;;;;;25.50;16.65;;;17.10;69.60;;;;;;5056483;28;20028;-74
2022/06/29 00:08:06;;;;;;;29.50;17.15;;;17.10;70.10;;;;;;5056685;28;20021;-70
2022/06/29 00:10:33;;;;;;;21.98;18.88;;;17.10;70.00;;;;;;5049696;28;20025;-71
2022/06/29 00:12:59;;;;;;;22.42;17.67;;;17.10;69.80;;;;;;5049401;28;20496;-70
2022/06/29 00:15:26;;;;;;;25.48;19.30;;;17.10;69.80;;;;;;5054767;28;20402;-71
2022/06/29 00:17:52;;;;;;;23.95;18.15;;;17.00;70.00;;;;;;5047265;28;20026;-69
2022/06/29 00:20:20;;;;;;;30.67;19.08;;;17.00;70.20;;;;;;5054867;28;20111;-70
2022/06/29 00:22:48;;;;;;;27.55;20.02;;;17.00;70.60;;;;;;5051065;28;20061;-70
2022/06/29 00:25:15;;;;;;;24.52;18.90;;;17.00;70.80;;;;;;5050724;28;20040;-70
2022/06/29 00:27:43;;;;;;;30.13;19.45;;;17.00;70.60;;;;;;5059233;28;20044;-70
2022/06/29 00:30:10;;;;;;;25.25;18.52;;;17.00;70.60;;;;;;5052598;28;20028;-70
2022/06/29 00:32:38;;;;;;;27.05;19.95;;;17.00;70.50;;;;;;5050749;28;20029;-70
2022/06/29 00:35:05;;;;;;;27.63;20.55;;;17.00;70.60;;;;;;5049563;28;20029;-70
2022/06/29 00:37:31;;;;;;;27.70;19.27;;;17.00;70.70;;;;;;5057404;28;20040;-70
2022/06/29 00:39:58;;;;;;;29.45;21.77;;;17.00;70.60;;;;;;5052160;28;20363;-71
2022/06/29 00:42:24;;;;;;;33.80;21.52;;;17.00;71.00;;;;;;5052676;28;20021;-70
2022/06/29 00:44:51;;;;;;;30.33;21.75;;;16.90;70.80;;;;;;5055815;28;20078;-71
2022/06/29 00:47:18;;;;;;;44.95;22.92;;;17.00;70.70;;;;;;5048701;28;20497;-70
2022/06/29 00:49:44;;;;;;;28.77;21.55;;;17.00;70.50;;;;;;5055379;28;20036;-70
2022/06/29 00:52:15;;;;;;;27.58;21.23;;;17.00;70.40;;;;;;5044402;28;20138;-71
2022/06/29 00:54:51;;;;;;;34.10;23.75;;;17.00;70.20;;;;;;5055754;28;20132;-70
2022/06/29 00:57:21;;;;;;;34.70;22.98;;;16.90;70.10;;;;;;5053350;28;20123;-70
2022/06/29 00:59:49;;;;;;;30.35;25.67;;;16.90;70.40;;;;;;5049707;28;20025;-70
2022/06/29 01:02:18;;;;;;;55.38;40.22;;;16.90;70.50;;;;;;5044510;28;20049;-70
2022/06/29 01:04:46;;;;;;;56.38;45.28;;;16.90;70.50;;;;;;5052096;28;20044;-70
2022/06/29 01:07:15;;;;;;;41.38;33.13;;;16.90;70.40;;;;;;5052292;28;20387;-70
2022/06/29 01:09:43;;;;;;;35.28;27.33;;;16.80;70.50;;;;;;5051380;28;20082;-70
2022/06/29 01:12:10;;;;;;;27.65;21.35;;;16.80;70.50;;;;;;5048952;28;20029;-71
2022/06/29 01:14:40;;;;;;;25.08;19.48;;;16.90;70.50;;;;;;5050168;28;20020;-70
2022/06/29 01:17:06;;;;;;;31.15;20.80;;;16.80;70.50;;;;;;5057036;28;20033;-73
2022/06/29 01:19:32;;;;;;;49.85;19.33;;;16.90;70.40;;;;;;5049985;28;20068;-71
2022/06/29 01:22:10;;;;;;;24.05;17.95;;;16.80;70.30;;;;;;5052873;28;20017;-70
2022/06/29 01:24:37;;;;;;;26.50;19.67;;;16.80;70.40;;;;;;5052081;28;20071;-72
2022/06/29 01:27:04;;;;;;;21.85;16.42;;;16.90;70.40;;;;;;5052758;28;20041;-70
2022/06/29 01:29:31;;;;;;;24.27;17.58;;;16.80;70.20;;;;;;5049490;28;20025;-71
2022/06/29 01:31:59;;;;;;;29.58;17.33;;;16.80;70.20;;;;;;5051324;28;20029;-70
2022/06/29 01:34:27;;;;;;;23.33;17.75;;;16.80;70.40;;;;;;5053199;28;20387;-71
2022/06/29 01:36:54;;;;;;;25.02;18.48;;;16.80;70.40;;;;;;5054616;28;20036;-71
2022/06/29 01:39:21;;;;;;;31.42;18.00;;;16.70;70.40;;;;;;5049135;28;20089;-73
2022/06/29 01:41:47;;;;;;;24.40;18.27;;;16.70;70.40;;;;;;5052990;28;20479;-70
2022/06/29 01:44:14;;;;;;;27.95;19.67;;;16.70;70.50;;;;;;5049653;28;20065;-70
2022/06/29 01:46:40;;;;;;;26.65;18.90;;;16.70;70.60;;;;;;5046780;28;20029;-72
2022/06/29 01:49:07;;;;;;;26.98;19.35;;;16.70;70.60;;;;;;5057792;28;20033;-72
2022/06/29 01:51:34;;;;;;;26.80;18.00;;;16.70;70.60;;;;;;5048241;28;20468;-71
2022/06/29 01:54:01;;;;;;;27.33;20.00;;;16.70;70.50;;;;;;5046904;28;20024;-72
2022/06/29 01:56:27;;;;;;;23.73;20.42;;;16.70;70.40;;;;;;5049254;28;20120;-70
2022/06/29 01:58:54;;;;;;;28.52;21.67;;;16.60;70.70;;;;;;5054231;28;20021;-72
2022/06/29 02:01:21;;;;;;;38.03;27.00;;;16.60;70.70;;;;;;5048799;28;20025;-72
2022/06/29 02:03:47;;;;;;;42.03;29.40;;;16.60;70.90;;;;;;5050333;28;20025;-71
2022/06/29 02:06:14;;;;;;;39.05;30.17;;;16.60;71.10;;;;;;5049425;28;20022;-72
2022/06/29 02:08:40;;;;;;;41.35;29.30;;;16.60;71.00;;;;;;5052528;28;20013;-73
2022/06/29 02:11:07;;;;;;;36.25;26.77;;;16.60;71.20;;;;;;5054590;28;20607;-73
2022/06/29 02:13:33;;;;;;;37.55;23.88;;;16.60;71.20;;;;;;5044586;28;20422;-73
2022/06/29 04:23:50;;;;;;;12.73;7.78;;;16.10;69.50;;;;;;5049592;28;20035;-67
2022/06/29 04:26:56;;;;;;;11.55;5.95;;;16.10;68.80;;;;;;5052530;28;20063;-67
2022/06/29 04:30:02;;;;;;;10.95;5.30;;;16.10;68.20;;;;;;5051532;28;20923;-67
2022/06/29 04:33:08;;;;;;;5.07;3.85;;;16.20;67.80;;;;;;5057266;28;20392;-68
2022/06/29 04:36:14;;;;;;;7.65;3.13;;;16.20;67.90;;;;;;5056466;28;20049;-68
2022/06/29 04:39:20;;;;;;;11.38;4.38;;;16.30;67.80;;;;;;5055982;28;20027;-67
2022/06/29 04:42:27;;;;;;;8.25;4.45;;;16.30;67.20;;;;;;5050957;28;20028;-67
2022/06/29 04:48:58;;;;;;;7.78;5.55;;;16.30;67.00;;;;;;5052193;28;20044;-70
2022/06/29 04:52:04;;;;;;;8.13;5.60;;;16.30;67.00;;;;;;5081278;28;20060;-68
2022/06/29 04:55:10;;;;;;;9.07;5.75;;;16.30;67.10;;;;;;5057274;28;20379;-70
2022/06/29 04:58:16;;;;;;;13.98;7.32;;;16.30;66.90;;;;;;5050339;28;20594;-67
2022/06/29 05:01:22;;;;;;;12.27;7.78;;;16.30;66.90;;;;;;5049934;28;20129;-66
2022/06/29 05:04:28;;;;;;;7.55;6.13;;;16.20;67.10;;;;;;5057064;28;20021;-68
2022/06/29 05:07:34;;;;;;;10.80;5.10;;;16.20;66.70;;;;;;5051750;28;20045;-67
2022/06/29 05:10:40;;;;;;;14.68;4.13;;;16.20;66.30;;;;;;5052730;28;20021;-66
2022/06/29 05:13:46;;;;;;;9.82;3.78;;;16.20;66.20;;;;;;5046459;28;20036;-66
2022/06/29 05:16:52;;;;;;;5.13;2.65;;;16.20;66.20;;;;;;5054773;28;20024;-71
2022/06/29 05:19:58;;;;;;;4.00;2.33;;;16.20;66.00;;;;;;5036612;28;20100;-67
2022/06/29 05:23:04;;;;;;;4.20;2.05;;;16.10;65.80;;;;;;5042261;28;20030;-67
2022/06/29 05:26:11;;;;;;;6.22;2.08;;;16.10;65.80;;;;;;5042784;28;20118;-71
2022/06/29 05:29:17;;;;;;;4.22;2.28;;;16.10;65.80;;;;;;5041245;28;20120;-70
2022/06/29 05:32:23;;;;;;;2.90;1.77;;;16.10;65.60;;;;;;5038854;28;20017;-71
2022/06/29 05:35:33;;;;;;;2.47;2.13;;;16.10;64.90;;;;;;5039625;28;20017;-69
2022/06/29 05:38:39;;;;;;;2.90;1.90;;;16.10;64.80;;;;;;5038302;28;20088;-69
2022/06/29 05:41:45;;;;;;;3.85;1.40;;;16.20;64.70;;;;;;5037209;28;20112;-69
2022/06/29 05:44:51;;;;;;;11.52;2.05;;;16.10;64.50;;;;;;5038063;28;20029;-69
2022/06/29 05:47:57;;;;;;;4.10;2.03;;;16.20;64.30;;;;;;5036341;28;20030;-71
2022/06/29 05:51:03;;;;;;;6.82;2.08;;;16.20;64.20;;;;;;5038253;28;20029;-67
2022/06/29 05:54:09;;;;;;;5.20;1.90;;;16.20;64.60;;;;;;5040171;28;20028;-69
2022/06/29 05:57:15;;;;;;;5.32;1.48;;;16.20;65.00;;;;;;5037974;28;20048;-69
2022/06/29 06:00:21;;;;;;;8.40;2.45;;;16.30;65.10;;;;;;5044872;28;20526;-68
2022/06/29 06:03:27;;;;;;;4.18;1.40;;;16.30;65.00;;;;;;5045553;28;20491;-69
2022/06/29 06:06:34;;;;;;;5.03;2.25;;;16.30;64.50;;;;;;5032209;28;20075;-69
2022/06/29 06:09:40;;;;;;;4.35;1.75;;;16.30;64.70;;;;;;5033965;28;20026;-69
2022/06/29 06:12:46;;;;;;;8.60;1.30;;;16.30;64.80;;;;;;5037719;28;20064;-70
2022/06/29 06:15:53;;;;;;;2.60;1.50;;;16.30;64.50;;;;;;5033207;28;20124;-70
2022/06/29 06:18:59;;;;;;;3.10;1.73;;;16.30;64.40;;;;;;5038659;28;20048;-69
2022/06/29 06:22:05;;;;;;;1.98;1.40;;;16.30;64.70;;;;;;5036579;28;20024;-69
2022/06/29 06:25:11;;;;;;;2.10;1.55;;;16.30;64.30;;;;;;5041371;28;20032;-70
2022/06/29 06:28:17;;;;;;;3.50;1.52;;;16.30;64.70;;;;;;5041001;28;20048;-69
2022/06/29 06:31:23;;;;;;;4.43;1.38;;;16.40;64.50;;;;;;5040914;28;20021;-69
2022/06/29 06:34:29;;;;;;;9.43;2.47;;;16.40;64.70;;;;;;5042473;28;20396;-68
2022/06/29 06:37:35;;;;;;;6.22;3.88;;;16.30;64.90;;;;;;5038592;28;20079;-69
2022/06/29 06:44:05;;;;;;;18.77;8.23;;;16.30;65.50;;;;;;5038760;28;20184;-71
2022/06/29 06:47:11;;;;;;;14.27;8.52;;;16.30;66.10;;;;;;5041944;28;20120;-71
2022/06/29 06:50:17;;;;;;;18.25;10.30;;;16.30;66.70;;;;;;5036928;28;20037;-72
2022/06/29 06:53:26;;;;;;;25.75;10.65;;;16.30;66.80;;;;;;5046435;28;20108;-74
2022/06/29 06:56:32;;;;;;;24.67;9.90;;;16.30;67.10;;;;;;5037507;28;20014;-71
2022/06/29 06:59:38;;;;;;;20.58;8.93;;;16.30;67.40;;;;;;5064995;28;20056;-72
2022/06/29 07:02:44;;;;;;;17.00;8.65;;;16.30;67.50;;;;;;5032517;28;20036;-70
2022/06/29 07:05:50;;;;;;;12.07;6.35;;;16.30;67.90;;;;;;5037579;28;20353;-68
2022/06/29 07:08:56;;;;;;;10.23;4.18;;;16.30;66.80;;;;;;5036298;28;20064;-68
2022/06/29 07:12:02;;;;;;;11.73;3.90;;;16.30;65.10;;;;;;5039123;28;20064;-69
2022/06/29 07:15:08;;;;;;;2.85;2.30;;;16.40;63.90;;;;;;5034846;28;20025;-71
2022/06/29 07:18:15;;;;;;;4.75;1.90;;;16.40;63.60;;;;;;5044918;28;20037;-70
2022/06/29 07:21:21;;;;;;;3.65;2.30;;;16.40;62.90;;;;;;5039751;28;20510;-68
2022/06/29 07:24:27;;;;;;;4.13;1.40;;;16.50;63.60;;;;;;5033701;28;20036;-70
2022/06/29 07:27:33;;;;;;;5.13;1.80;;;16.50;63.40;;;;;;5033951;28;20388;-69
2022/06/29 07:30:20;;;;;;;8.80;1.83;;;16.50;63.60;;;;;;5033364;28;20577;-70
2022/06/29 07:32:47;;;;;;;4.47;1.48;;;16.60;62.90;;;;;;5039824;28;20025;-71
2022/06/29 07:35:13;;;;;;;3.72;1.13;;;16.60;62.40;;;;;;5035128;28;20052;-71
2022/06/29 07:37:40;;;;;;;4.35;2.10;;;16.70;62.50;;;;;;5034364;28;20029;-72
2022/06/29 07:40:06;;;;;;;4.07;1.67;;;16.70;63.30;;;;;;5032277;28;20071;-71
2022/06/29 07:42:35;;;;;;;3.83;1.58;;;16.80;62.70;;;;;;5033470;28;20018;-73
2022/06/29 07:45:03;;;;;;;1.27;1.02;;;16.80;63.20;;;;;;5029063;28;20108;-71
2022/06/29 07:47:29;;;;;;;3.65;1.65;;;16.80;63.90;;;;;;5035478;28;20029;-75
2022/06/29 07:49:56;;;;;;;3.88;1.98;;;16.90;64.10;;;;;;5033688;28;20021;-71
2022/06/29 07:52:22;;;;;;;4.30;1.48;;;16.90;64.50;;;;;;5033755;28;20477;-73
2022/06/29 07:54:49;;;;;;;5.68;1.50;;;17.00;64.70;;;;;;5037672;28;20032;-73
2022/06/29 07:57:15;;;;;;;1.70;1.20;;;17.00;63.80;;;;;;5035914;28;20021;-74
2022/06/29 07:59:42;;;;;;;3.47;1.50;;;17.10;63.90;;;;;;5036689;28;20021;-74
2022/06/29 08:02:08;;;;;;;3.78;1.27;;;17.20;62.60;;;;;;5029975;28;20072;-78
2022/06/29 08:04:35;;;;;;;2.65;1.55;;;17.20;62.40;;;;;;5039133;28;20394;-73
2022/06/29 08:07:01;;;;;;;3.75;1.70;;;17.30;61.90;;;;;;5038924;28;20033;-76
2022/06/29 08:09:28;;;;;;;5.00;1.42;;;17.30;62.00;;;;;;5038783;28;20503;-75
2022/06/29 08:11:54;;;;;;;3.95;2.30;;;17.40;61.60;;;;;;5040084;28;20030;-75
2022/06/29 08:14:21;;;;;;;10.32;1.65;;;17.40;61.20;;;;;;5035948;28;20010;-76
2022/06/29 08:16:47;;;;;;;1.50;1.33;;;17.50;61.10;;;;;;5043419;28;20025;-76
2022/06/29 08:19:14;;;;;;;4.38;1.83;;;17.60;61.00;;;;;;5039054;28;20045;-73
2022/06/29 08:21:40;;;;;;;3.67;1.50;;;17.70;60.60;;;;;;5043083;28;20021;-73
2022/06/29 08:24:07;;;;;;;6.20;2.20;;;17.70;60.40;;;;;;5033802;28;20017;-73
2022/06/29 08:26:33;;;;;;;3.50;1.60;;;17.80;59.90;;;;;;5039445;28;20025;-73
2022/06/29 08:29:00;;;;;;;1.92;1.40;;;17.80;60.60;;;;;;5039563;28;20537;-72
2022/06/29 08:31:26;;;;;;;4.32;2.00;;;17.90;60.00;;;;;;5036577;28;20403;-70
2022/06/29 08:33:53;;;;;;;6.82;2.03;;;18.00;59.70;;;;;;5035574;28;20025;-74
2022/06/29 08:36:19;;;;;;;2.85;1.35;;;18.00;59.90;;;;;;5033896;28;20022;-71
2022/06/29 08:38:46;;;;;;;2.22;1.20;;;18.10;60.00;;;;;;5039385;28;20029;-72
2022/06/29 08:41:13;;;;;;;10.50;1.08;;;18.10;59.70;;;;;;5036157;28;20036;-75
2022/06/29 08:43:42;;;;;;;3.35;1.30;;;18.20;60.00;;;;;;5036378;28;20018;-71
2022/06/29 08:46:11;;;;;;;2.47;1.40;;;18.30;60.00;;;;;;5030697;28;20064;-74
2022/06/29 08:48:37;;;;;;;2.80;1.45;;;18.30;59.70;;;;;;5036845;28;20560;-71
2022/06/29 08:51:06;;;;;;;2.85;1.15;;;18.40;59.70;;;;;;5034576;28;20060;-70
2022/06/29 08:53:36;;;;;;;2.30;1.48;;;18.50;59.30;;;;;;5035656;28;20021;-75
2022/06/29 08:56:03;;;;;;;2.22;1.13;;;18.50;59.00;;;;;;5040315;28;20033;-75
2022/06/29 08:58:31;;;;;;;2.15;1.33;;;18.60;58.30;;;;;;5035710;28;20024;-74
2022/06/29 09:00:57;;;;;;;6.65;1.70;;;18.60;58.40;;;;;;5042785;28;20706;-73
2022/06/29 09:03:24;;;;;;;4.32;2.30;;;18.70;58.40;;;;;;5037618;28;20031;-72
2022/06/29 09:05:54;;;;;;;1.33;1.10;;;18.70;57.40;;;;;;5041540;28;20410;-71
2022/06/29 09:08:22;;;;;;;2.38;1.30;;;18.80;57.70;;;;;;5036043;28;20452;-72
2022/06/29 09:10:49;;;;;;;3.47;1.90;;;18.80;58.00;;;;;;5043532;28;20067;-73
2022/06/29 09:13:20;;;;;;;4.60;1.73;;;18.90;58.30;;;;;;5038308;28;20035;-74
2022/06/29 09:15:47;;;;;;;2.90;1.40;;;19.00;58.10;;;;;;5041239;28;20025;-76
2022/06/29 09:18:32;;;;;;;15.48;1.80;;;19.00;58.00;;;;;;5033943;28;20045;-73
2022/06/29 09:21:06;;;;;;;3.95;1.85;;;19.00;58.00;;;;;;5037482;28;20025;-71
2022/06/29 09:23:35;;;;;;;3.30;1.20;;;19.10;58.20;;;;;;5038560;28;20017;-75
2022/06/29 09:26:01;;;;;;;2.85;1.50;;;19.20;58.10;;;;;;5041320;28;20422;-74
2022/06/29 09:28:32;;;;;;;4.15;2.08;;;19.30;58.40;;;;;;5039796;28;20148;-74
2022/06/29 09:30:59;;;;;;;3.65;1.83;;;19.30;58.50;;;;;;5040102;28;20040;-73
2022/06/29 09:33:28;;;;;;;7.47;1.63;;;19.40;58.60;;;;;;5042009;28;20025;-74
2022/06/29 09:36:14;;;;;;;14.05;1.50;;;19.40;58.00;;;;;;5034553;28;20036;-73
2022/06/29 09:38:41;;;;;;;2.40;1.48;;;19.50;57.70;;;;;;5045526;28;20438;-74
2022/06/29 09:41:13;;;;;;;6.97;1.65;;;19.60;57.50;;;;;;5040265;28;20044;-73
2022/06/29 09:43:45;;;;;;;2.92;1.48;;;19.60;57.00;;;;;;5042045;28;20033;-73
2022/06/29 09:46:14;;;;;;;6.82;1.35;;;19.70;56.90;;;;;;5039109;28;20033;-75
2022/06/29 09:48:42;;;;;;;2.72;1.40;;;19.70;56.40;;;;;;5046897;28;20037;-72
2022/06/29 09:54:07;;;;;;;2.35;1.33;;;19.80;56.40;;;;;;5034966;28;20129;-73
2022/06/29 09:56:35;;;;;;;2.30;1.30;;;19.90;57.10;;;;;;5037446;28;20018;-72
2022/06/29 09:59:05;;;;;;;2.28;1.52;;;20.00;56.70;;;;;;5043614;28;20021;-72
2022/06/29 10:04:17;;;;;;;2.53;1.30;;;20.10;56.20;;;;;;5037852;28;20079;-74
2022/06/29 10:06:45;;;;;;;3.70;1.52;;;20.20;56.20;;;;;;5045945;28;20029;-75
2022/06/29 12:22:19;;;;;;;14.43;5.88;;;22.60;54.30;;;;;;5041887;27;20454;-73
2022/06/29 12:24:46;;;;;;;12.98;4.50;;;23.00;51.30;;;;;;5018729;28;20111;-72
2022/06/29 12:27:13;;;;;;;5.57;3.38;;;23.00;50.60;;;;;;5025945;28;20021;-72
2022/06/29 12:29:39;;;;;;;5.70;1.90;;;23.00;49.80;;;;;;5030413;28;20377;-71
2022/06/29 12:32:06;;;;;;;5.05;1.75;;;23.10;49.50;;;;;;5021568;28;20547;-72
2022/06/29 12:34:32;;;;;;;8.57;1.95;;;23.10;49.10;;;;;;5026320;28;20476;-74
2022/06/29 12:36:59;;;;;;;5.47;1.60;;;23.10;48.40;;;;;;5020941;28;20420;-73
2022/06/29 12:39:25;;;;;;;9.80;2.42;;;23.10;47.80;;;;;;5024418;28;20112;-74
2022/06/29 12:41:53;;;;;;;8.07;2.30;;;23.20;48.00;;;;;;5024480;28;20026;-73
2022/06/29 12:44:19;;;;;;;4.78;2.72;;;23.20;47.40;;;;;;5017888;28;20084;-73
2022/06/29 12:46:46;;;;;;;6.03;2.40;;;23.20;47.50;;;;;;5019794;28;20029;-73
2022/06/29 12:49:12;;;;;;;4.15;2.33;;;23.20;47.30;;;;;;5025478;28;20040;-73
2022/06/29 12:51:39;;;;;;;3.40;1.73;;;23.20;47.10;;;;;;5024786;28;20511;-73
2022/06/29 12:54:05;;;;;;;3.28;1.60;;;23.20;47.00;;;;;;5026691;28;20472;-73
2022/06/29 12:56:32;;;;;;;6.53;2.85;;;23.20;47.20;;;;;;5028900;28;20025;-73
2022/06/29 12:58:58;;;;;;;3.92;2.47;;;23.20;47.40;;;;;;5020054;28;20128;-73
2022/06/29 13:01:25;;;;;;;7.20;2.33;;;23.20;47.60;;;;;;5022114;28;20024;-73
2022/06/29 13:03:51;;;;;;;6.90;2.78;;;23.20;47.40;;;;;;5027033;28;20018;-73
2022/06/29 13:06:18;;;;;;;9.02;2.67;;;23.20;47.30;;;;;;5031632;28;20020;-73
2022/06/29 13:08:44;;;;;;;5.35;2.55;;;23.20;47.40;;;;;;5027824;28;20034;-73
2022/06/29 13:11:11;;;;;;;10.13;3.00;;;23.20;47.20;;;;;;5026377;28;20060;-73
2022/06/29 13:13:39;;;;;;;9.20;2.67;;;23.20;47.40;;;;;;5017157;28;20023;-73
2022/06/29 13:16:07;;;;;;;8.32;2.25;;;23.20;48.00;;;;;;5026612;28;20378;-73
2022/06/29 13:18:34;;;;;;;6.43;2.28;;;23.20;47.90;;;;;;5025204;28;20377;-73
2022/06/29 13:21:01;;;;;;;17.92;2.17;;;23.20;48.10;;;;;;5022504;28;20097;-73
2022/06/29 13:23:28;;;;;;;3.42;2.15;;;23.20;48.00;;;;;;5004994;28;20037;-73
2022/06/29 13:25:54;;;;;;;6.18;2.50;;;23.20;48.00;;;;;;5016312;28;20022;-73
2022/06/29 13:28:20;;;;;;;6.47;1.75;;;23.20;48.20;;;;;;5013291;28;20018;-73
2022/06/29 13:30:47;;;;;;;4.85;2.20;;;23.20;48.40;;;;;;5009129;28;20038;-73
2022/06/29 13:33:13;;;;;;;4.13;1.80;;;23.20;48.50;;;;;;5008483;28;20125;-73
2022/06/29 13:35:40;;;;;;;3.85;2.28;;;23.20;48.50;;;;;;5007403;28;20069;-73
2022/06/29 13:38:07;;;;;;;3.75;1.50;;;23.20;48.70;;;;;;5012313;28;20121;-73
2022/06/29 13:40:34;;;;;;;3.13;1.88;;;23.20;49.30;;;;;;5010778;28;20449;-73
2022/06/29 13:43:00;;;;;;;3.90;1.85;;;23.20;48.60;;;;;;5015638;28;20369;-73
2022/06/29 13:45:27;;;;;;;3.63;1.65;;;23.20;48.30;;;;;;5006078;28;20023;-73
2022/06/29 13:47:53;;;;;;;2.00;1.73;;;23.20;48.40;;;;;;5015432;28;20018;-73
2022/06/29 13:50:20;;;;;;;7.78;2.00;;;23.20;48.60;;;;;;5021369;28;20075;-73
2022/06/29 13:52:46;;;;;;;2.85;1.80;;;23.20;48.20;;;;;;5007988;28;20026;-73
2022/06/29 13:55:12;;;;;;;7.93;2.47;;;23.20;48.50;;;;;;5006946;28;20026;-74
2022/06/29 13:57:40;;;;;;;5.82;2.58;;;23.10;48.80;;;;;;5006890;28;20038;-73
2022/06/29 14:00:07;;;;;;;7.72;3.00;;;23.20;49.20;;;;;;5015711;28;20010;-73
2022/06/29 14:02:34;;;;;;;3.63;2.13;;;23.10;49.20;;;;;;5004585;28;20030;-73
2022/06/29 14:05:01;;;;;;;6.00;2.00;;;23.10;48.90;;;;;;5007816;28;20476;-73
2022/06/29 14:07:28;;;;;;;2.72;1.70;;;23.10;49.30;;;;;;5010788;28;20180;-73
2022/06/29 14:09:55;;;;;;;6.45;2.78;;;23.00;49.40;;;;;;5013848;28;20427;-73
2022/06/29 14:12:22;;;;;;;7.90;1.90;;;23.00;49.30;;;;;;5009744;28;20038;-73
2022/06/29 14:14:49;;;;;;;7.85;1.83;;;23.00;49.20;;;;;;5010891;28;20038;-73
2022/06/29 14:17:15;;;;;;;4.45;2.20;;;23.00;49.30;;;;;;5007215;28;20153;-73
2022/06/29 14:19:42;;;;;;;9.23;3.80;;;23.00;49.70;;;;;;5012692;28;20095;-73
2022/06/29 14:22:09;;;;;;;4.13;2.13;;;22.90;49.60;;;;;;5014355;28;20037;-73
2022/06/29 14:24:36;;;;;;;7.75;2.22;;;22.90;49.50;;;;;;5006140;28;20036;-73
2022/06/29 14:27:02;;;;;;;4.82;2.10;;;22.80;49.40;;;;;;5004342;28;20105;-73
2022/06/29 14:29:29;;;;;;;8.25;2.38;;;22.80;49.70;;;;;;5011794;28;20033;-73
2022/06/29 14:31:55;;;;;;;4.90;1.73;;;22.80;49.60;;;;;;5012639;28;20084;-73
2022/06/29 14:34:22;;;;;;;3.75;1.83;;;22.70;49.40;;;;;;5003836;28;20026;-73
2022/06/29 14:36:48;;;;;;;7.55;2.83;;;22.70;49.90;;;;;;5003421;28;20282;-73
2022/06/29 14:39:15;;;;;;;13.02;2.92;;;22.70;50.20;;;;;;5006975;28;20021;-74
2022/06/29 14:41:41;;;;;;;3.45;2.13;;;22.60;50.40;;;;;;5008635;28;20015;-73
2022/06/29 14:44:08;;;;;;;10.15;2.05;;;22.60;51.30;;;;;;5003565;28;20493;-73
2022/06/29 14:46:34;;;;;;;7.15;1.98;;;22.60;50.10;;;;;;5010226;28;20065;-73
2022/06/29 14:49:01;;;;;;;8.13;2.60;;;22.50;50.20;;;;;;5005760;28;20022;-73
2022/06/29 14:51:27;;;;;;;7.22;2.30;;;22.50;49.90;;;;;;5011123;28;20068;-73
2022/06/29 14:53:54;;;;;;;16.55;2.28;;;22.50;49.80;;;;;;5005258;28;20072;-73
2022/06/29 14:56:20;;;;;;;2.55;2.03;;;22.50;49.80;;;;;;5008564;28;20026;-73
2022/06/29 14:58:48;;;;;;;4.95;2.53;;;22.40;50.20;;;;;;5011035;28;20021;-73
2022/06/29 15:01:14;;;;;;;5.90;2.10;;;22.30;50.40;;;;;;5010523;28;20037;-73
2022/06/29 15:03:41;;;;;;;4.63;2.30;;;22.30;50.20;;;;;;5005044;28;20761;-73
2022/06/29 15:06:07;;;;;;;3.83;2.33;;;22.20;50.30;;;;;;5008010;28;20385;-73
2022/06/29 15:08:34;;;;;;;9.60;2.20;;;22.20;51.60;;;;;;5009460;28;20057;-73
2022/06/29 15:11:00;;;;;;;12.82;2.92;;;22.10;52.30;;;;;;5009821;28;20386;-73
2022/06/29 15:13:27;;;;;;;6.50;2.45;;;22.10;52.90;;;;;;5008107;28;20026;-73
2022/06/29 15:15:53;;;;;;;6.38;2.33;;;22.00;52.90;;;;;;5014673;28;20030;-73
2022/06/29 15:18:20;;;;;;;6.65;2.17;;;21.90;53.30;;;;;;5010662;28;20476;-73
2022/06/29 15:20:47;;;;;;;8.18;3.47;;;21.90;53.60;;;;;;5004715;28;20089;-73
2022/06/29 15:23:13;;;;;;;4.78;2.40;;;21.80;54.20;;;;;;5009667;28;20036;-72
2022/06/29 15:25:40;;;;;;;7.57;2.35;;;21.80;54.70;;;;;;5007701;28;20116;-73
2022/06/29 15:28:06;;;;;;;8.32;2.08;;;21.70;54.90;;;;;;5008969;28;20014;-73
2022/06/29 15:30:32;;;;;;;3.95;1.95;;;21.70;55.10;;;;;;5012629;28;20038;-73
2022/06/29 15:32:59;;;;;;;6.28;2.13;;;21.60;55.50;;;;;;5007948;28;20018;-73
2022/06/29 15:38:52;;;;;;;10.35;2.50;;;21.60;56.30;;;;;;5009143;28;20580;-73
2022/06/29 15:41:03;;;;;;;12.40;3.08;;;21.50;56.60;;;;;;5013584;28;20483;-73
2022/06/29 15:43:30;;;;;;;18.67;4.00;;;21.40;56.70;;;;;;5006244;28;20026;-73
2022/06/29 15:45:56;;;;;;;9.52;3.00;;;21.40;56.70;;;;;;5007716;28;20050;-73
2022/06/29 15:48:23;;;;;;;6.80;2.78;;;21.40;57.00;;;;;;5005815;28;20134;-73
2022/06/29 15:50:49;;;;;;;10.85;3.05;;;21.40;57.40;;;;;;5013530;28;20104;-73
2022/06/29 15:56:01;;;;;;;7.25;2.50;;;21.30;57.80;;;;;;5008559;28;20095;-73
2022/06/29 15:58:27;;;;;;;28.05;3.58;;;21.20;58.20;;;;;;5003734;28;20026;-73
2022/06/29 16:00:54;;;;;;;29.38;4.43;;;21.20;58.40;;;;;;5008391;28;20030;-72
2022/06/29 16:03:20;;;;;;;25.80;4.03;;;21.20;59.60;;;;;;5009157;28;20006;-72
2022/06/29 16:05:47;;;;;;;6.30;3.33;;;21.10;60.40;;;;;;5009850;28;20089;-72
2022/06/29 16:08:13;;;;;;;12.95;3.55;;;21.10;60.20;;;;;;5008111;28;20026;-72
2022/06/29 16:10:39;;;;;;;46.10;26.13;;;21.00;59.60;;;;;;5009113;28;20064;-69
2022/06/29 16:13:06;;;;;;;31.13;17.90;;;21.00;59.60;;;;;;5006334;28;20507;-70
2022/06/29 16:15:32;;;;;;;23.95;15.27;;;21.00;60.10;;;;;;5008644;28;20033;-71
2022/06/29 16:17:59;;;;;;;27.02;12.13;;;20.90;60.80;;;;;;5007552;28;20025;-70
2022/06/29 16:20:26;;;;;;;40.30;19.73;;;20.90;60.90;;;;;;5008559;28;20049;-71
2022/06/29 16:22:52;;;;;;;27.48;16.50;;;20.80;61.90;;;;;;5009017;28;20022;-70
2022/06/29 16:25:19;;;;;;;27.70;14.30;;;20.90;62.80;;;;;;5001628;28;20018;-70
2022/06/29 16:27:46;;;;;;;12.60;9.82;;;20.80;62.80;;;;;;5001408;28;20023;-70
2022/06/29 16:30:14;;;;;;;19.70;9.10;;;20.80;62.70;;;;;;5005380;28;20381;-69
2022/06/29 16:32:41;;;;;;;10.07;5.88;;;20.80;62.80;;;;;;5005382;28;20037;-69
2022/06/29 16:35:08;;;;;;;14.88;5.78;;;20.80;62.80;;;;;;4999523;28;20120;-70
2022/06/29 16:37:35;;;;;;;15.40;5.82;;;20.70;62.70;;;;;;5007680;28;20523;-70
2022/06/29 16:40:02;;;;;;;17.90;5.07;;;20.60;62.70;;;;;;5006565;28;20026;-70
2022/06/29 16:42:28;;;;;;;10.48;3.92;;;20.60;62.80;;;;;;5002813;28;20029;-70
2022/06/29 16:44:57;;;;;;;22.20;3.22;;;20.60;62.80;;;;;;5004341;28;20030;-70
2022/06/29 16:47:23;;;;;;;8.63;3.22;;;20.50;62.70;;;;;;5005222;28;20022;-70
2022/06/29 16:49:50;;;;;;;8.02;2.72;;;20.60;63.30;;;;;;5007393;28;20030;-70
2022/06/29 16:52:16;;;;;;;7.88;2.83;;;20.50;63.40;;;;;;5001884;28;20018;-70
2022/06/29 16:54:43;;;;;;;6.78;2.40;;;20.50;63.50;;;;;;5004276;28;20021;-70
2022/06/29 16:57:09;;;;;;;40.55;20.42;;;20.40;63.50;;;;;;5002602;28;20018;-69
2022/06/29 16:59:36;;;;;;;27.55;19.00;;;20.40;64.20;;;;;;5007105;28;20029;-70
2022/06/29 17:02:04;;;;;;;16.45;13.00;;;20.40;63.70;;;;;;5011742;28;20026;-70
2022/06/29 17:04:30;;;;;;;13.57;10.18;;;20.40;63.80;;;;;;5006448;28;20033;-70
2022/06/29 17:06:57;;;;;;;10.77;7.05;;;20.30;63.80;;;;;;5002211;28;20023;-70
2022/06/29 17:09:24;;;;;;;13.55;7.95;;;20.30;63.80;;;;;;4998180;28;20014;-71
2022/06/29 17:11:51;;;;;;;14.27;8.45;;;20.30;63.70;;;;;;5001271;28;20092;-71
2022/06/29 17:14:18;;;;;;;10.02;8.00;;;20.20;63.70;;;;;;5007652;28;20057;-73
2022/06/29 17:16:45;;;;;;;14.07;7.85;;;20.20;63.70;;;;;;5000541;28;20430;-74
2022/06/29 17:19:12;;;;;;;15.38;6.30;;;20.20;63.80;;;;;;5001316;28;20098;-76
2022/06/29 17:21:39;;;;;;;6.60;5.43;;;20.20;63.80;;;;;;4997008;28;20412;-75
2022/06/29 17:24:06;;;;;;;11.63;5.40;;;20.20;63.90;;;;;;4999744;28;20767;-75
2022/06/29 17:26:32;;;;;;;6.22;4.80;;;20.10;63.90;;;;;;4999311;28;20049;-73
2022/06/29 17:28:59;;;;;;;7.28;5.15;;;20.10;63.90;;;;;;4999207;28;20047;-75
2022/06/29 17:31:25;;;;;;;8.82;5.88;;;20.10;63.90;;;;;;5016616;28;20374;-76
2022/06/29 17:33:52;;;;;;;30.67;22.70;;;20.00;63.90;;;;;;5000321;28;20057;-74
2022/06/29 17:36:19;;;;;;;43.17;30.70;;;20.00;63.90;;;;;;5000579;28;20037;-75
2022/06/29 17:38:46;;;;;;;31.58;26.40;;;20.00;64.00;;;;;;4999633;28;20042;-75
2022/06/29 17:41:13;;;;;;;23.77;21.02;;;20.00;64.20;;;;;;4997815;28;20073;-76
2022/06/29 17:43:39;;;;;;;16.13;13.77;;;20.00;64.20;;;;;;5001248;28;20018;-76
2022/06/29 17:46:06;;;;;;;15.20;11.18;;;19.90;64.30;;;;;;4998879;28;20112;-76
2022/06/29 17:48:36;;;;;;;11.95;8.00;;;19.90;64.20;;;;;;4995357;28;20034;-76
2022/06/29 17:51:05;;;;;;;15.68;7.82;;;19.90;64.10;;;;;;5013806;28;20041;-76
2022/06/29 17:53:32;;;;;;;18.95;6.97;;;19.90;64.20;;;;;;5000248;28;20021;-76
2022/06/29 17:55:58;;;;;;;18.55;6.75;;;19.90;64.70;;;;;;5001202;28;20469;-76